sensor_id;sensor_type;location;lat;lon;timestamp;temperature;humidity
20881;DHT22;10600;53.096;8.802;2023-02-28T00:00:04;4.20;99.90
20881;DHT22;10600;53.096;8.802;2023-02-28T00:01:12;4.20;99.90
20881;DHT22;10600;53.096;8.802;2023-02-28T00:02:13;4.20;99.90
20881;DHT22;10600;53.096;8.802;2023-02-28T00:03:14;4.20;99.90
20881;DHT22;10600;53.096;8.802;2023-02-28T00:04:15;4.30;99.90
20881;DHT22;10600;53.096;8.802;2023-02-28T00:05:18;4.30;99.90
20881;DHT22;10600;53.096;8.802;2023-02-28T00:06:19;4.20;99.90
20881;DHT22;10600;53.096;8.802;2023-02-28T00:07:21;4.30;99.90
20881;DHT22;10600;53.096;8.802;2023-02-28T00:08:21;4.30;99.90
20881;DHT22;10600;53.096;8.802;2023-02-28T00:09:22;4.30;99.90
20881;DHT22;10600;53.096;8.802;2023-02-28T00:10:25;4.30;99.90
20881;DHT22;10600;53.096;8.802;2023-02-28T00:11:28;4.30;99.90
20881;DHT22;10600;53.096;8.802;2023-02-28T00:12:28;4.30;99.90
20881;DHT22;10600;53.096;8.802;2023-02-28T00:13:29;4.30;99.90
20881;DHT22;10600;53.096;8.802;2023-02-28T00:14:30;4.30;99.90
20881;DHT22;10600;53.096;8.802;2023-02-28T00:15:31;4.30;99.90
20881;DHT22;10600;53.096;8.802;2023-02-28T00:16:32;4.20;99.90
20881;DHT22;10600;53.096;8.802;2023-02-28T00:17:33;4.20;99.90
20881;DHT22;10600;53.096;8.802;2023-02-28T00:18:33;4.20;99.90
20881;DHT22;10600;53.096;8.802;2023-02-28T00:19:34;4.20;99.90
20881;DHT22;10600;53.096;8.802;2023-02-28T00:20:35;4.20;99.90
20881;DHT22;10600;53.096;8.802;2023-02-28T00:21:35;4.20;99.90
20881;DHT22;10600;53.096;8.802;2023-02-28T00:22:37;4.20;99.90
20881;DHT22;10600;53.096;8.802;2023-02-28T00:23:38;4.10;99.90
20881;DHT22;10600;53.096;8.802;2023-02-28T00:24:39;4.20;99.90
20881;DHT22;10600;53.096;8.802;2023-02-28T00:25:40;4.20;99.90
20881;DHT22;10600;53.096;8.802;2023-02-28T00:26:40;4.10;99.90
20881;DHT22;10600;53.096;8.802;2023-02-28T00:27:41;4.10;99.90
20881;DHT22;10600;53.096;8.802;2023-02-28T00:28:42;4.10;99.90
20881;DHT22;10600;53.096;8.802;2023-02-28T00:29:43;4.10;99.90
20881;DHT22;10600;53.096;8.802;2023-02-28T00:30:43;4.10;99.90
20881;DHT22;10600;53.096;8.802;2023-02-28T00:31:44;4.10;99.90
20881;DHT22;10600;53.096;8.802;2023-02-28T00:32:45;4.00;99.90
20881;DHT22;10600;53.096;8.802;2023-02-28T00:33:45;4.00;99.90
20881;DHT22;10600;53.096;8.802;2023-02-28T00:34:46;4.00;99.90
20881;DHT22;10600;53.096;8.802;2023-02-28T00:35:47;4.00;99.90
20881;DHT22;10600;53.096;8.802;2023-02-28T00:36:49;4.00;99.90
20881;DHT22;10600;53.096;8.802;2023-02-28T00:37:49;4.00;99.90
20881;DHT22;10600;53.096;8.802;2023-02-28T00:38:50;4.00;99.90
20881;DHT22;10600;53.096;8.802;2023-02-28T00:39:50;4.00;99.90
20881;DHT22;10600;53.096;8.802;2023-02-28T00:40:51;4.00;99.90
20881;DHT22;10600;53.096;8.802;2023-02-28T00:41:52;4.00;99.90
20881;DHT22;10600;53.096;8.802;2023-02-28T00:42:52;4.00;99.90
20881;DHT22;10600;53.096;8.802;2023-02-28T00:43:53;4.00;99.90
20881;DHT22;10600;53.096;8.802;2023-02-28T00:44:54;4.00;99.90
20881;DHT22;10600;53.096;8.802;2023-02-28T00:45:54;4.00;99.90
20881;DHT22;10600;53.096;8.802;2023-02-28T00:46:55;4.10;99.90
20881;DHT22;10600;53.096;8.802;2023-02-28T00:47:56;4.10;99.90
20881;DHT22;10600;53.096;8.802;2023-02-28T00:48:57;4.10;99.90
20881;DHT22;10600;53.096;8.802;2023-02-28T00:49:58;4.10;99.90
20881;DHT22;10600;53.096;8.802;2023-02-28T00:50:59;4.10;99.90
20881;DHT22;10600;53.096;8.802;2023-02-28T00:52:00;4.10;99.90
20881;DHT22;10600;53.096;8.802;2023-02-28T00:53:00;4.20;99.90
20881;DHT22;10600;53.096;8.802;2023-02-28T00:54:01;4.20;99.90
20881;DHT22;10600;53.096;8.802;2023-02-28T00:55:01;4.20;99.90
20881;DHT22;10600;53.096;8.802;2023-02-28T00:56:03;4.20;99.90
20881;DHT22;10600;53.096;8.802;2023-02-28T00:57:04;4.20;99.90
20881;DHT22;10600;53.096;8.802;2023-02-28T00:58:04;4.20;99.90
20881;DHT22;10600;53.096;8.802;2023-02-28T00:59:05;4.20;99.90
20881;DHT22;10600;53.096;8.802;2023-02-28T01:00:06;4.20;99.90
20881;DHT22;10600;53.096;8.802;2023-02-28T01:01:07;4.20;99.90
20881;DHT22;10600;53.096;8.802;2023-02-28T01:02:08;4.30;99.90
20881;DHT22;10600;53.096;8.802;2023-02-28T01:03:09;4.30;99.90
20881;DHT22;10600;53.096;8.802;2023-02-28T01:04:09;4.30;99.90
20881;DHT22;10600;53.096;8.802;2023-02-28T01:05:10;4.30;99.90
20881;DHT22;10600;53.096;8.802;2023-02-28T01:06:11;4.30;99.90
20881;DHT22;10600;53.096;8.802;2023-02-28T01:07:11;4.30;99.90
20881;DHT22;10600;53.096;8.802;2023-02-28T01:08:13;4.30;99.90
20881;DHT22;10600;53.096;8.802;2023-02-28T01:09:14;4.30;99.90
20881;DHT22;10600;53.096;8.802;2023-02-28T01:10:15;4.40;99.90
20881;DHT22;10600;53.096;8.802;2023-02-28T01:11:19;4.30;99.90
20881;DHT22;10600;53.096;8.802;2023-02-28T01:12:19;4.40;99.90
20881;DHT22;10600;53.096;8.802;2023-02-28T01:13:20;4.40;99.90
20881;DHT22;10600;53.096;8.802;2023-02-28T01:14:21;4.40;99.90
20881;DHT22;10600;53.096;8.802;2023-02-28T01:15:21;4.40;99.90
20881;DHT22;10600;53.096;8.802;2023-02-28T01:16:22;4.40;99.90
20881;DHT22;10600;53.096;8.802;2023-02-28T01:17:22;4.40;99.90
20881;DHT22;10600;53.096;8.802;2023-02-28T01:18:23;4.40;99.90
20881;DHT22;10600;53.096;8.802;2023-02-28T01:19:25;4.40;99.90
20881;DHT22;10600;53.096;8.802;2023-02-28T01:20:25;4.40;99.90
20881;DHT22;10600;53.096;8.802;2023-02-28T01:21:26;4.40;99.90
20881;DHT22;10600;53.096;8.802;2023-02-28T01:22:27;4.40;99.90
20881;DHT22;10600;53.096;8.802;2023-02-28T01:23:27;4.40;99.90
20881;DHT22;10600;53.096;8.802;2023-02-28T01:24:28;4.40;99.90
20881;DHT22;10600;53.096;8.802;2023-02-28T01:25:29;4.40;99.90
20881;DHT22;10600;53.096;8.802;2023-02-28T01:26:30;4.40;99.90
20881;DHT22;10600;53.096;8.802;2023-02-28T01:27:31;4.40;99.90
20881;DHT22;10600;53.096;8.802;2023-02-28T01:28:32;4.40;99.90
20881;DHT22;10600;53.096;8.802;2023-02-28T01:29:33;4.40;99.90
20881;DHT22;10600;53.096;8.802;2023-02-28T01:30:33;4.40;99.90
20881;DHT22;10600;53.096;8.802;2023-02-28T01:31:34;4.40;99.90
20881;DHT22;10600;53.096;8.802;2023-02-28T01:32:36;4.40;99.90
20881;DHT22;10600;53.096;8.802;2023-02-28T01:33:36;4.40;99.90
20881;DHT22;10600;53.096;8.802;2023-02-28T01:34:37;4.40;99.90
20881;DHT22;10600;53.096;8.802;2023-02-28T01:35:38;4.40;99.90
20881;DHT22;10600;53.096;8.802;2023-02-28T01:36:39;4.40;99.90
20881;DHT22;10600;53.096;8.802;2023-02-28T01:37:39;4.40;99.90
20881;DHT22;10600;53.096;8.802;2023-02-28T01:38:40;4.40;99.90
20881;DHT22;10600;53.096;8.802;2023-02-28T01:39:41;4.40;99.90
20881;DHT22;10600;53.096;8.802;2023-02-28T01:40:41;4.40;99.90
20881;DHT22;10600;53.096;8.802;2023-02-28T01:41:42;4.40;99.90
20881;DHT22;10600;53.096;8.802;2023-02-28T01:42:43;4.40;99.90
20881;DHT22;10600;53.096;8.802;2023-02-28T01:46:24;4.40;99.90
20881;DHT22;10600;53.096;8.802;2023-02-28T01:47:33;4.40;99.90
20881;DHT22;10600;53.096;8.802;2023-02-28T01:48:38;4.40;99.90
20881;DHT22;10600;53.096;8.802;2023-02-28T01:49:41;4.40;99.90
20881;DHT22;10600;53.096;8.802;2023-02-28T01:50:44;4.40;99.90
20881;DHT22;10600;53.096;8.802;2023-02-28T01:51:51;4.40;99.90
20881;DHT22;10600;53.096;8.802;2023-02-28T01:52:57;4.50;99.90
20881;DHT22;10600;53.096;8.802;2023-02-28T01:54:05;4.40;99.90
20881;DHT22;10600;53.096;8.802;2023-02-28T01:55:15;4.40;99.90
20881;DHT22;10600;53.096;8.802;2023-02-28T01:56:20;4.40;99.90
20881;DHT22;10600;53.096;8.802;2023-02-28T01:57:27;4.40;99.90
20881;DHT22;10600;53.096;8.802;2023-02-28T01:58:30;4.40;99.90
20881;DHT22;10600;53.096;8.802;2023-02-28T01:59:44;4.40;99.90
20881;DHT22;10600;53.096;8.802;2023-02-28T02:00:49;4.40;99.90
20881;DHT22;10600;53.096;8.802;2023-02-28T02:01:50;4.40;99.90
20881;DHT22;10600;53.096;8.802;2023-02-28T02:02:54;4.40;99.90
20881;DHT22;10600;53.096;8.802;2023-02-28T02:04:01;4.40;99.90
20881;DHT22;10600;53.096;8.802;2023-02-28T02:05:12;4.40;99.90
20881;DHT22;10600;53.096;8.802;2023-02-28T02:06:14;4.40;99.90
20881;DHT22;10600;53.096;8.802;2023-02-28T02:07:16;4.40;99.90
20881;DHT22;10600;53.096;8.802;2023-02-28T02:08:20;4.40;99.90
20881;DHT22;10600;53.096;8.802;2023-02-28T02:09:22;4.40;99.90
20881;DHT22;10600;53.096;8.802;2023-02-28T02:10:32;4.30;99.90
20881;DHT22;10600;53.096;8.802;2023-02-28T02:11:34;4.30;99.90
20881;DHT22;10600;53.096;8.802;2023-02-28T02:15:34;4.30;99.90
20881;DHT22;10600;53.096;8.802;2023-02-28T02:17:46;4.30;99.90
20881;DHT22;10600;53.096;8.802;2023-02-28T02:18:54;4.30;99.90
20881;DHT22;10600;53.096;8.802;2023-02-28T02:23:19;4.20;99.90
20881;DHT22;10600;53.096;8.802;2023-02-28T02:28:43;4.20;99.90
20881;DHT22;10600;53.096;8.802;2023-02-28T02:31:18;4.10;99.90
20881;DHT22;10600;53.096;8.802;2023-02-28T02:32:28;4.10;99.90
20881;DHT22;10600;53.096;8.802;2023-02-28T02:36:57;4.10;99.90
20881;DHT22;10600;53.096;8.802;2023-02-28T02:39:09;4.00;99.90
20881;DHT22;10600;53.096;8.802;2023-02-28T02:40:22;4.00;99.90
20881;DHT22;10600;53.096;8.802;2023-02-28T02:45:16;4.00;99.90
20881;DHT22;10600;53.096;8.802;2023-02-28T02:46:23;4.00;99.90
20881;DHT22;10600;53.096;8.802;2023-02-28T02:47:28;4.00;99.90
20881;DHT22;10600;53.096;8.802;2023-02-28T02:48:33;3.90;99.90
20881;DHT22;10600;53.096;8.802;2023-02-28T02:49:36;4.00;99.90
20881;DHT22;10600;53.096;8.802;2023-02-28T02:50:49;4.00;99.90
20881;DHT22;10600;53.096;8.802;2023-02-28T02:51:51;3.90;99.90
20881;DHT22;10600;53.096;8.802;2023-02-28T02:52:56;3.90;99.90
20881;DHT22;10600;53.096;8.802;2023-02-28T02:54:19;3.90;99.90
20881;DHT22;10600;53.096;8.802;2023-02-28T02:55:22;3.90;99.90
20881;DHT22;10600;53.096;8.802;2023-02-28T02:56:26;3.90;99.90
20881;DHT22;10600;53.096;8.802;2023-02-28T02:57:50;3.90;99.90
20881;DHT22;10600;53.096;8.802;2023-02-28T02:58:56;3.90;99.90
20881;DHT22;10600;53.096;8.802;2023-02-28T03:00:02;3.90;99.90
20881;DHT22;10600;53.096;8.802;2023-02-28T03:01:04;3.80;99.90
20881;DHT22;10600;53.096;8.802;2023-02-28T03:02:09;3.80;99.90
20881;DHT22;10600;53.096;8.802;2023-02-28T03:03:11;3.80;99.90
20881;DHT22;10600;53.096;8.802;2023-02-28T03:04:20;3.80;99.90
20881;DHT22;10600;53.096;8.802;2023-02-28T03:05:28;3.80;99.90
20881;DHT22;10600;53.096;8.802;2023-02-28T03:06:31;3.80;99.90
20881;DHT22;10600;53.096;8.802;2023-02-28T03:07:31;3.80;99.90
20881;DHT22;10600;53.096;8.802;2023-02-28T03:08:37;3.80;99.90
20881;DHT22;10600;53.096;8.802;2023-02-28T03:09:38;3.80;99.90
20881;DHT22;10600;53.096;8.802;2023-02-28T03:10:42;3.80;99.90
20881;DHT22;10600;53.096;8.802;2023-02-28T03:11:43;3.70;99.90
20881;DHT22;10600;53.096;8.802;2023-02-28T03:12:50;3.70;99.90
20881;DHT22;10600;53.096;8.802;2023-02-28T03:14:40;3.70;99.90
20881;DHT22;10600;53.096;8.802;2023-02-28T03:15:31;3.70;99.90
20881;DHT22;10600;53.096;8.802;2023-02-28T03:23:15;3.60;99.90
20881;DHT22;10600;53.096;8.802;2023-02-28T03:24:39;3.60;99.90
20881;DHT22;10600;53.096;8.802;2023-02-28T03:27:04;3.60;99.90
20881;DHT22;10600;53.096;8.802;2023-02-28T03:28:28;3.60;99.90
20881;DHT22;10600;53.096;8.802;2023-02-28T03:29:39;3.50;99.90
20881;DHT22;10600;53.096;8.802;2023-02-28T03:30:54;3.50;99.90
20881;DHT22;10600;53.096;8.802;2023-02-28T03:33:25;3.50;99.90
20881;DHT22;10600;53.096;8.802;2023-02-28T03:34:38;3.50;99.90
20881;DHT22;10600;53.096;8.802;2023-02-28T03:35:43;3.50;99.90
20881;DHT22;10600;53.096;8.802;2023-02-28T03:36:49;3.50;99.90
20881;DHT22;10600;53.096;8.802;2023-02-28T03:38:04;3.50;99.90
20881;DHT22;10600;53.096;8.802;2023-02-28T03:39:10;3.50;99.90
20881;DHT22;10600;53.096;8.802;2023-02-28T03:40:15;3.50;99.90
20881;DHT22;10600;53.096;8.802;2023-02-28T03:41:21;3.50;99.90
20881;DHT22;10600;53.096;8.802;2023-02-28T03:42:25;3.40;99.90
20881;DHT22;10600;53.096;8.802;2023-02-28T03:43:31;3.40;99.90
20881;DHT22;10600;53.096;8.802;2023-02-28T03:45:49;3.40;99.90
20881;DHT22;10600;53.096;8.802;2023-02-28T03:46:56;3.40;99.90
20881;DHT22;10600;53.096;8.802;2023-02-28T03:48:06;3.40;99.90
20881;DHT22;10600;53.096;8.802;2023-02-28T03:49:14;3.30;99.90
20881;DHT22;10600;53.096;8.802;2023-02-28T03:50:22;3.40;99.90
20881;DHT22;10600;53.096;8.802;2023-02-28T03:51:26;3.30;99.90
20881;DHT22;10600;53.096;8.802;2023-02-28T03:52:32;3.30;99.90
20881;DHT22;10600;53.096;8.802;2023-02-28T03:53:44;3.30;99.90
20881;DHT22;10600;53.096;8.802;2023-02-28T03:54:52;3.30;99.90
20881;DHT22;10600;53.096;8.802;2023-02-28T03:56:05;3.20;99.90
20881;DHT22;10600;53.096;8.802;2023-02-28T03:57:18;3.20;99.90
20881;DHT22;10600;53.096;8.802;2023-02-28T03:58:27;3.20;99.90
20881;DHT22;10600;53.096;8.802;2023-02-28T04:00:45;3.10;99.90
20881;DHT22;10600;53.096;8.802;2023-02-28T04:01:48;3.00;99.90
20881;DHT22;10600;53.096;8.802;2023-02-28T04:02:49;3.00;99.90
20881;DHT22;10600;53.096;8.802;2023-02-28T04:03:53;3.00;99.90
20881;DHT22;10600;53.096;8.802;2023-02-28T04:04:53;3.00;99.90
20881;DHT22;10600;53.096;8.802;2023-02-28T04:05:55;3.00;99.90
20881;DHT22;10600;53.096;8.802;2023-02-28T04:07:05;3.00;99.90
20881;DHT22;10600;53.096;8.802;2023-02-28T04:08:07;2.90;99.90
20881;DHT22;10600;53.096;8.802;2023-02-28T04:09:11;2.90;99.90
20881;DHT22;10600;53.096;8.802;2023-02-28T04:10:13;2.90;99.90
20881;DHT22;10600;53.096;8.802;2023-02-28T04:11:21;2.90;99.90
20881;DHT22;10600;53.096;8.802;2023-02-28T04:12:22;2.90;99.90
20881;DHT22;10600;53.096;8.802;2023-02-28T04:13:23;2.90;99.90
20881;DHT22;10600;53.096;8.802;2023-02-28T04:14:24;2.90;99.90
20881;DHT22;10600;53.096;8.802;2023-02-28T04:15:25;2.90;99.90
20881;DHT22;10600;53.096;8.802;2023-02-28T04:16:28;2.90;99.90
20881;DHT22;10600;53.096;8.802;2023-02-28T04:17:28;2.90;99.90
20881;DHT22;10600;53.096;8.802;2023-02-28T04:18:29;2.90;99.90
20881;DHT22;10600;53.096;8.802;2023-02-28T04:19:30;2.90;99.90
20881;DHT22;10600;53.096;8.802;2023-02-28T04:20:30;2.90;99.90
20881;DHT22;10600;53.096;8.802;2023-02-28T04:21:52;2.90;99.90
20881;DHT22;10600;53.096;8.802;2023-02-28T04:22:53;2.90;99.90
20881;DHT22;10600;53.096;8.802;2023-02-28T04:23:54;2.90;99.90
20881;DHT22;10600;53.096;8.802;2023-02-28T04:24:54;2.90;99.90
20881;DHT22;10600;53.096;8.802;2023-02-28T04:25:55;2.90;99.90
20881;DHT22;10600;53.096;8.802;2023-02-28T04:26:57;2.90;99.90
20881;DHT22;10600;53.096;8.802;2023-02-28T04:27:58;2.90;99.90
20881;DHT22;10600;53.096;8.802;2023-02-28T04:28:59;2.90;99.90
20881;DHT22;10600;53.096;8.802;2023-02-28T04:30:00;2.90;99.90
20881;DHT22;10600;53.096;8.802;2023-02-28T04:31:03;2.90;99.90
20881;DHT22;10600;53.096;8.802;2023-02-28T04:32:04;2.90;99.90
20881;DHT22;10600;53.096;8.802;2023-02-28T04:33:05;2.90;99.90
20881;DHT22;10600;53.096;8.802;2023-02-28T04:34:06;2.90;99.90
20881;DHT22;10600;53.096;8.802;2023-02-28T04:35:07;2.90;99.90
20881;DHT22;10600;53.096;8.802;2023-02-28T04:36:08;2.90;99.90
20881;DHT22;10600;53.096;8.802;2023-02-28T04:37:09;2.90;99.90
20881;DHT22;10600;53.096;8.802;2023-02-28T04:38:09;2.90;99.90
20881;DHT22;10600;53.096;8.802;2023-02-28T04:39:10;2.90;99.90
20881;DHT22;10600;53.096;8.802;2023-02-28T04:40:11;2.90;99.90
20881;DHT22;10600;53.096;8.802;2023-02-28T04:41:12;2.90;99.90
20881;DHT22;10600;53.096;8.802;2023-02-28T04:42:13;2.90;99.90
20881;DHT22;10600;53.096;8.802;2023-02-28T04:43:14;2.90;99.90
20881;DHT22;10600;53.096;8.802;2023-02-28T04:44:15;2.90;99.90
20881;DHT22;10600;53.096;8.802;2023-02-28T04:45:16;3.00;99.90
20881;DHT22;10600;53.096;8.802;2023-02-28T04:46:17;2.90;99.90
20881;DHT22;10600;53.096;8.802;2023-02-28T04:47:18;2.90;99.90
20881;DHT22;10600;53.096;8.802;2023-02-28T04:48:19;2.90;99.90
20881;DHT22;10600;53.096;8.802;2023-02-28T04:49:20;3.00;99.90
20881;DHT22;10600;53.096;8.802;2023-02-28T04:50:20;2.90;99.90
20881;DHT22;10600;53.096;8.802;2023-02-28T04:51:21;3.00;99.90
20881;DHT22;10600;53.096;8.802;2023-02-28T04:52:22;3.00;99.90
20881;DHT22;10600;53.096;8.802;2023-02-28T04:53:22;2.90;99.90
20881;DHT22;10600;53.096;8.802;2023-02-28T04:54:23;3.00;99.90
20881;DHT22;10600;53.096;8.802;2023-02-28T04:55:24;2.90;99.90
20881;DHT22;10600;53.096;8.802;2023-02-28T04:56:25;2.90;99.90
20881;DHT22;10600;53.096;8.802;2023-02-28T04:57:25;2.90;99.90
20881;DHT22;10600;53.096;8.802;2023-02-28T04:58:26;2.90;99.90
20881;DHT22;10600;53.096;8.802;2023-02-28T04:59:27;2.90;99.90
20881;DHT22;10600;53.096;8.802;2023-02-28T05:00:27;2.90;99.90
20881;DHT22;10600;53.096;8.802;2023-02-28T05:01:33;2.90;99.90
20881;DHT22;10600;53.096;8.802;2023-02-28T05:02:35;2.90;99.90
20881;DHT22;10600;53.096;8.802;2023-02-28T05:03:35;2.90;99.90
20881;DHT22;10600;53.096;8.802;2023-02-28T05:04:36;2.90;99.90
20881;DHT22;10600;53.096;8.802;2023-02-28T05:05:37;2.90;99.90
20881;DHT22;10600;53.096;8.802;2023-02-28T05:06:38;2.90;99.90
20881;DHT22;10600;53.096;8.802;2023-02-28T05:07:38;2.90;99.90
20881;DHT22;10600;53.096;8.802;2023-02-28T05:08:39;2.90;99.90
20881;DHT22;10600;53.096;8.802;2023-02-28T05:09:40;2.90;99.90
20881;DHT22;10600;53.096;8.802;2023-02-28T05:10:41;2.90;99.90
20881;DHT22;10600;53.096;8.802;2023-02-28T05:11:41;2.90;99.90
20881;DHT22;10600;53.096;8.802;2023-02-28T05:12:42;2.90;99.90
20881;DHT22;10600;53.096;8.802;2023-02-28T05:13:43;2.90;99.90
20881;DHT22;10600;53.096;8.802;2023-02-28T05:14:43;2.90;99.90
20881;DHT22;10600;53.096;8.802;2023-02-28T05:15:44;2.90;99.90
20881;DHT22;10600;53.096;8.802;2023-02-28T05:16:45;2.90;99.90
20881;DHT22;10600;53.096;8.802;2023-02-28T05:17:45;2.90;99.90
20881;DHT22;10600;53.096;8.802;2023-02-28T05:18:46;2.90;99.90
20881;DHT22;10600;53.096;8.802;2023-02-28T05:19:47;2.90;99.90
20881;DHT22;10600;53.096;8.802;2023-02-28T05:20:47;2.90;99.90
20881;DHT22;10600;53.096;8.802;2023-02-28T05:21:51;2.90;99.90
20881;DHT22;10600;53.096;8.802;2023-02-28T05:22:52;2.90;99.90
20881;DHT22;10600;53.096;8.802;2023-02-28T05:23:53;2.90;99.90
20881;DHT22;10600;53.096;8.802;2023-02-28T05:24:55;2.90;99.90
20881;DHT22;10600;53.096;8.802;2023-02-28T05:25:55;2.90;99.90
20881;DHT22;10600;53.096;8.802;2023-02-28T05:26:56;2.80;99.90
20881;DHT22;10600;53.096;8.802;2023-02-28T05:27:57;2.80;99.90
20881;DHT22;10600;53.096;8.802;2023-02-28T05:28:57;2.80;99.90
20881;DHT22;10600;53.096;8.802;2023-02-28T05:29:59;2.80;99.90
20881;DHT22;10600;53.096;8.802;2023-02-28T05:30:59;2.80;99.90
20881;DHT22;10600;53.096;8.802;2023-02-28T05:32:00;2.80;99.90
20881;DHT22;10600;53.096;8.802;2023-02-28T05:33:00;2.80;99.90
20881;DHT22;10600;53.096;8.802;2023-02-28T05:34:01;2.70;99.90
20881;DHT22;10600;53.096;8.802;2023-02-28T05:35:04;2.70;99.90
20881;DHT22;10600;53.096;8.802;2023-02-28T05:36:06;2.70;99.90
20881;DHT22;10600;53.096;8.802;2023-02-28T05:37:11;2.60;99.90
20881;DHT22;10600;53.096;8.802;2023-02-28T05:38:12;2.60;99.90
20881;DHT22;10600;53.096;8.802;2023-02-28T05:39:13;2.60;99.90
20881;DHT22;10600;53.096;8.802;2023-02-28T05:40:13;2.50;99.90
20881;DHT22;10600;53.096;8.802;2023-02-28T05:41:16;2.40;99.90
20881;DHT22;10600;53.096;8.802;2023-02-28T05:42:17;2.40;99.90
20881;DHT22;10600;53.096;8.802;2023-02-28T05:43:17;2.40;99.90
20881;DHT22;10600;53.096;8.802;2023-02-28T05:44:18;2.30;99.90
20881;DHT22;10600;53.096;8.802;2023-02-28T05:45:19;2.30;99.90
20881;DHT22;10600;53.096;8.802;2023-02-28T05:46:19;2.20;99.90
20881;DHT22;10600;53.096;8.802;2023-02-28T05:47:20;2.20;99.90
20881;DHT22;10600;53.096;8.802;2023-02-28T05:48:20;2.10;99.90
20881;DHT22;10600;53.096;8.802;2023-02-28T05:49:21;2.10;99.90
20881;DHT22;10600;53.096;8.802;2023-02-28T05:50:22;2.00;99.90
20881;DHT22;10600;53.096;8.802;2023-02-28T05:51:23;2.00;99.90
20881;DHT22;10600;53.096;8.802;2023-02-28T05:52:24;1.90;99.90
20881;DHT22;10600;53.096;8.802;2023-02-28T05:53:24;1.80;99.90
20881;DHT22;10600;53.096;8.802;2023-02-28T05:54:25;1.90;99.90
20881;DHT22;10600;53.096;8.802;2023-02-28T05:55:25;1.90;99.90
20881;DHT22;10600;53.096;8.802;2023-02-28T05:56:26;1.80;99.90
20881;DHT22;10600;53.096;8.802;2023-02-28T05:57:27;1.80;99.90
20881;DHT22;10600;53.096;8.802;2023-02-28T05:58:28;1.70;99.90
20881;DHT22;10600;53.096;8.802;2023-02-28T05:59:30;1.70;99.90
20881;DHT22;10600;53.096;8.802;2023-02-28T06:00:31;1.70;99.90
20881;DHT22;10600;53.096;8.802;2023-02-28T06:01:35;1.60;99.90
20881;DHT22;10600;53.096;8.802;2023-02-28T06:02:36;1.60;99.90
20881;DHT22;10600;53.096;8.802;2023-02-28T06:03:36;1.60;99.90
20881;DHT22;10600;53.096;8.802;2023-02-28T06:04:37;1.60;99.90
20881;DHT22;10600;53.096;8.802;2023-02-28T06:05:38;1.50;99.90
20881;DHT22;10600;53.096;8.802;2023-02-28T06:06:38;1.50;99.90
20881;DHT22;10600;53.096;8.802;2023-02-28T06:07:39;1.40;99.90
20881;DHT22;10600;53.096;8.802;2023-02-28T06:08:40;1.40;99.90
20881;DHT22;10600;53.096;8.802;2023-02-28T06:09:40;1.40;99.90
20881;DHT22;10600;53.096;8.802;2023-02-28T06:10:41;1.30;99.90
20881;DHT22;10600;53.096;8.802;2023-02-28T06:11:42;1.30;99.90
20881;DHT22;10600;53.096;8.802;2023-02-28T06:12:42;1.20;99.90
20881;DHT22;10600;53.096;8.802;2023-02-28T06:13:43;1.20;99.90
20881;DHT22;10600;53.096;8.802;2023-02-28T06:14:44;1.10;99.90
20881;DHT22;10600;53.096;8.802;2023-02-28T06:15:44;1.10;99.90
20881;DHT22;10600;53.096;8.802;2023-02-28T06:16:45;1.10;99.90
20881;DHT22;10600;53.096;8.802;2023-02-28T06:17:46;1.00;99.90
20881;DHT22;10600;53.096;8.802;2023-02-28T06:18:47;1.10;99.90
20881;DHT22;10600;53.096;8.802;2023-02-28T06:19:48;1.10;99.90
20881;DHT22;10600;53.096;8.802;2023-02-28T06:20:54;1.10;99.90
20881;DHT22;10600;53.096;8.802;2023-02-28T06:21:56;1.10;99.90
20881;DHT22;10600;53.096;8.802;2023-02-28T06:22:57;1.10;99.90
20881;DHT22;10600;53.096;8.802;2023-02-28T06:24:02;1.10;99.90
20881;DHT22;10600;53.096;8.802;2023-02-28T06:25:04;1.10;99.90
20881;DHT22;10600;53.096;8.802;2023-02-28T06:26:05;1.20;99.90
20881;DHT22;10600;53.096;8.802;2023-02-28T06:27:05;1.20;99.90
20881;DHT22;10600;53.096;8.802;2023-02-28T06:28:06;1.20;99.90
20881;DHT22;10600;53.096;8.802;2023-02-28T06:29:07;1.20;99.90
20881;DHT22;10600;53.096;8.802;2023-02-28T06:30:08;1.10;99.90
20881;DHT22;10600;53.096;8.802;2023-02-28T06:31:16;1.20;99.90
20881;DHT22;10600;53.096;8.802;2023-02-28T06:32:16;1.20;99.90
20881;DHT22;10600;53.096;8.802;2023-02-28T06:33:17;1.10;99.90
20881;DHT22;10600;53.096;8.802;2023-02-28T06:34:18;1.10;99.90
20881;DHT22;10600;53.096;8.802;2023-02-28T06:35:18;1.10;99.90
20881;DHT22;10600;53.096;8.802;2023-02-28T06:36:19;1.10;99.90
20881;DHT22;10600;53.096;8.802;2023-02-28T06:37:20;1.10;99.90
20881;DHT22;10600;53.096;8.802;2023-02-28T06:38:20;1.10;99.90
20881;DHT22;10600;53.096;8.802;2023-02-28T06:39:21;1.10;99.90
20881;DHT22;10600;53.096;8.802;2023-02-28T06:40:22;1.10;99.90
20881;DHT22;10600;53.096;8.802;2023-02-28T06:41:24;1.10;99.90
20881;DHT22;10600;53.096;8.802;2023-02-28T06:42:25;1.10;99.90
20881;DHT22;10600;53.096;8.802;2023-02-28T06:43:31;1.10;99.90
20881;DHT22;10600;53.096;8.802;2023-02-28T06:44:32;1.10;99.90
20881;DHT22;10600;53.096;8.802;2023-02-28T06:45:35;1.10;99.90
20881;DHT22;10600;53.096;8.802;2023-02-28T06:46:36;1.10;99.90
20881;DHT22;10600;53.096;8.802;2023-02-28T06:47:38;1.10;99.90
20881;DHT22;10600;53.096;8.802;2023-02-28T06:48:39;1.10;99.90
20881;DHT22;10600;53.096;8.802;2023-02-28T06:49:40;1.10;99.90
20881;DHT22;10600;53.096;8.802;2023-02-28T06:50:41;1.10;99.90
20881;DHT22;10600;53.096;8.802;2023-02-28T06:51:43;1.00;99.90
20881;DHT22;10600;53.096;8.802;2023-02-28T06:52:45;1.10;99.90
20881;DHT22;10600;53.096;8.802;2023-02-28T06:53:46;1.10;99.90
20881;DHT22;10600;53.096;8.802;2023-02-28T06:54:47;1.10;99.90
20881;DHT22;10600;53.096;8.802;2023-02-28T06:55:47;1.10;99.90
20881;DHT22;10600;53.096;8.802;2023-02-28T06:56:48;1.10;99.90
20881;DHT22;10600;53.096;8.802;2023-02-28T06:57:49;1.10;99.90
20881;DHT22;10600;53.096;8.802;2023-02-28T06:58:50;1.10;99.90
20881;DHT22;10600;53.096;8.802;2023-02-28T06:59:53;1.10;99.90
20881;DHT22;10600;53.096;8.802;2023-02-28T07:00:53;1.10;99.90
20881;DHT22;10600;53.096;8.802;2023-02-28T07:01:54;1.10;99.90
20881;DHT22;10600;53.096;8.802;2023-02-28T07:02:55;1.20;99.90
20881;DHT22;10600;53.096;8.802;2023-02-28T07:03:56;1.20;99.90
20881;DHT22;10600;53.096;8.802;2023-02-28T07:04:56;1.20;99.90
20881;DHT22;10600;53.096;8.802;2023-02-28T07:05:57;1.20;99.90
20881;DHT22;10600;53.096;8.802;2023-02-28T07:06:58;1.30;99.90
20881;DHT22;10600;53.096;8.802;2023-02-28T07:07:58;1.30;99.90
20881;DHT22;10600;53.096;8.802;2023-02-28T07:08:59;1.30;99.90
20881;DHT22;10600;53.096;8.802;2023-02-28T07:09:59;1.30;99.90
20881;DHT22;10600;53.096;8.802;2023-02-28T07:11:00;1.30;99.90
20881;DHT22;10600;53.096;8.802;2023-02-28T07:12:01;1.30;99.90
20881;DHT22;10600;53.096;8.802;2023-02-28T07:13:03;1.30;99.90
20881;DHT22;10600;53.096;8.802;2023-02-28T07:14:04;1.30;99.90
20881;DHT22;10600;53.096;8.802;2023-02-28T07:15:05;1.40;99.90
20881;DHT22;10600;53.096;8.802;2023-02-28T07:16:09;1.40;99.90
20881;DHT22;10600;53.096;8.802;2023-02-28T07:17:10;1.40;99.90